createdAt,value
2022-08-20T00:02:16.693Z,25.80
2022-08-20T00:04:45.455Z,25.80
2022-08-20T00:07:14.408Z,25.80
2022-08-20T00:09:44.353Z,25.80
2022-08-20T00:12:17.215Z,25.80
2022-08-20T00:14:46.867Z,25.80
2022-08-20T00:17:16.572Z,25.80
2022-08-20T00:19:44.822Z,25.80
2022-08-20T00:22:13.699Z,25.80
2022-08-20T00:24:42.069Z,25.80
2022-08-20T00:27:10.465Z,25.80
2022-08-20T00:29:38.916Z,25.80
2022-08-20T00:32:08.758Z,25.80
2022-08-20T00:34:37.136Z,25.80
2022-08-20T00:37:05.720Z,25.80
2022-08-20T00:39:34.109Z,25.80
2022-08-20T00:42:03.450Z,25.80
2022-08-20T00:44:31.884Z,25.80
2022-08-20T00:47:00.445Z,25.80
2022-08-20T00:49:32.919Z,25.80
2022-08-20T00:52:06.482Z,25.80
2022-08-20T00:54:40.078Z,25.80
2022-08-20T00:57:12.841Z,25.80
2022-08-20T00:59:43.367Z,25.80
2022-08-20T01:02:16.268Z,25.80
2022-08-20T01:04:48.946Z,25.80
2022-08-20T01:07:20.412Z,25.80
2022-08-20T01:09:58.909Z,25.80
2022-08-20T01:12:30.054Z,25.80
2022-08-20T01:15:02.959Z,25.80
2022-08-20T01:17:36.403Z,25.80
2022-08-20T01:20:11.650Z,25.80
2022-08-20T01:23:04.571Z,25.80
2022-08-20T01:25:44.733Z,25.80
2022-08-20T01:28:15.134Z,25.80
2022-08-20T01:30:44.129Z,25.80
2022-08-20T01:33:13.790Z,25.70
2022-08-20T01:35:44.669Z,25.80
2022-08-20T01:38:14.254Z,25.70
2022-08-20T01:41:28.239Z,25.80
2022-08-20T01:43:58.816Z,25.70
2022-08-20T01:46:32.904Z,25.70
2022-08-20T01:49:13.599Z,25.70
2022-08-20T01:51:43.793Z,25.60
2022-08-20T01:54:13.686Z,25.70
2022-08-20T01:56:59.432Z,25.70
2022-08-20T01:59:27.837Z,25.70
2022-08-20T02:01:58.523Z,25.70
2022-08-20T02:04:27.688Z,25.70
2022-08-20T02:06:59.405Z,25.80
2022-08-20T02:09:30.216Z,25.70
2022-08-20T02:12:01.033Z,25.80
2022-08-20T02:14:30.769Z,25.80
2022-08-20T02:16:59.895Z,25.80
2022-08-20T02:19:35.480Z,25.70
2022-08-20T02:22:10.529Z,25.70
2022-08-20T02:24:38.754Z,25.70
2022-08-20T02:27:08.382Z,25.70
2022-08-20T02:29:36.762Z,25.70
2022-08-20T02:32:24.375Z,25.80
2022-08-20T02:34:54.875Z,25.80
2022-08-20T02:37:23.340Z,25.80
2022-08-20T02:39:51.624Z,25.70
2022-08-20T02:42:21.284Z,25.70
2022-08-20T02:44:49.513Z,25.70
2022-08-20T02:47:18.181Z,25.70
2022-08-20T02:49:46.569Z,25.70
2022-08-20T02:52:14.801Z,25.70
2022-08-20T02:54:43.109Z,25.70
2022-08-20T02:57:14.187Z,25.70
2022-08-20T02:59:45.210Z,25.70
2022-08-20T03:02:14.028Z,25.70
2022-08-20T03:04:42.829Z,25.70
2022-08-20T03:07:13.014Z,25.70
2022-08-20T03:09:42.321Z,25.70
2022-08-20T03:12:11.041Z,25.70
2022-08-20T03:14:39.467Z,25.60
2022-08-20T03:17:09.548Z,25.70
2022-08-20T03:19:38.198Z,25.60
2022-08-20T03:22:07.100Z,25.70
2022-08-20T03:24:35.394Z,25.70
2022-08-20T03:27:03.662Z,25.70
2022-08-20T03:29:32.134Z,25.70
2022-08-20T03:32:03.843Z,25.70
2022-08-20T03:34:35.973Z,25.70
2022-08-20T03:37:04.291Z,25.70
2022-08-20T03:39:32.822Z,25.60
2022-08-20T03:42:01.165Z,25.70
2022-08-20T03:44:29.379Z,25.70
2022-08-20T03:46:58.011Z,25.70
2022-08-20T03:49:26.721Z,25.70
2022-08-20T03:51:58.040Z,25.70
2022-08-20T03:54:31.978Z,25.70
2022-08-20T03:57:01.428Z,25.70
2022-08-20T03:59:29.908Z,25.70
2022-08-20T04:01:58.179Z,25.70
2022-08-20T04:04:26.551Z,25.70
2022-08-20T04:06:56.494Z,25.70
2022-08-20T04:09:24.726Z,25.70
2022-08-20T04:12:00.202Z,25.70
2022-08-20T04:14:29.186Z,25.70
2022-08-20T04:16:57.805Z,25.70
2022-08-20T04:19:29.179Z,25.70
2022-08-20T04:22:01.070Z,25.60
2022-08-20T04:24:32.209Z,25.60
2022-08-20T04:27:02.778Z,25.60
2022-08-20T04:29:34.882Z,25.60
2022-08-20T04:32:06.133Z,25.60
2022-08-20T04:34:36.392Z,25.50
2022-08-20T04:37:17.248Z,25.50
2022-08-20T04:40:06.104Z,25.50
2022-08-20T04:42:36.722Z,25.40
2022-08-20T04:45:07.701Z,25.50
2022-08-20T04:47:36.496Z,25.40
2022-08-20T04:50:05.940Z,25.30
2022-08-20T04:52:36.006Z,25.40
2022-08-20T04:55:05.691Z,25.40
2022-08-20T04:57:36.665Z,25.30
2022-08-20T05:00:10.041Z,25.40
2022-08-20T05:02:38.953Z,25.40
2022-08-20T05:05:08.429Z,25.40
2022-08-20T05:07:42.944Z,25.40
2022-08-20T05:10:14.840Z,25.40
2022-08-20T05:12:56.811Z,25.40
2022-08-20T05:15:26.594Z,25.40
2022-08-20T05:18:00.595Z,25.40
2022-08-20T05:20:32.119Z,25.40
2022-08-20T05:23:03.513Z,25.40
2022-08-20T05:25:32.678Z,25.40
2022-08-20T05:28:05.572Z,25.40
2022-08-20T05:30:34.484Z,25.40
2022-08-20T05:33:06.195Z,25.40
2022-08-20T05:35:38.599Z,25.40
2022-08-20T05:38:13.666Z,25.40
2022-08-20T05:40:43.727Z,25.50
2022-08-20T05:43:12.393Z,25.50
2022-08-20T05:45:43.843Z,25.40
2022-08-20T05:48:16.533Z,25.50
2022-08-20T05:50:49.328Z,25.50
2022-08-20T05:53:20.193Z,25.50
2022-08-20T05:55:49.499Z,25.40
2022-08-20T05:58:22.404Z,25.40
2022-08-20T06:00:52.223Z,25.50
2022-08-20T06:03:38.606Z,25.40
2022-08-20T06:06:18.405Z,25.50
2022-08-20T06:08:58.224Z,25.50
2022-08-20T06:11:26.750Z,25.50
2022-08-20T06:13:55.025Z,25.50
2022-08-20T06:16:23.301Z,25.50
2022-08-20T06:18:58.123Z,25.50
2022-08-20T06:21:27.347Z,25.50
2022-08-20T06:23:59.146Z,25.50
2022-08-20T06:26:31.584Z,25.40
2022-08-20T06:29:00.317Z,25.40
2022-08-20T06:31:29.105Z,25.40
2022-08-20T06:33:58.132Z,25.40
2022-08-20T06:36:27.447Z,25.50
2022-08-20T06:38:58.526Z,25.50
2022-08-20T06:41:36.152Z,25.50
2022-08-20T06:44:06.659Z,25.50
2022-08-20T06:46:36.136Z,25.50
2022-08-20T06:49:05.357Z,25.60
2022-08-20T06:51:34.174Z,25.60
2022-08-20T06:54:06.789Z,25.50
2022-08-20T06:56:35.569Z,25.50
2022-08-20T06:59:03.845Z,25.60
2022-08-20T07:01:32.975Z,25.70
2022-08-20T07:04:01.347Z,25.80
2022-08-20T07:06:29.839Z,25.80
2022-08-20T07:08:58.376Z,25.70
2022-08-20T07:11:28.962Z,25.60
2022-08-20T07:13:58.703Z,25.60
2022-08-20T07:16:27.829Z,25.60
2022-08-20T07:18:56.273Z,25.50
2022-08-20T07:21:24.642Z,25.40
2022-08-20T07:23:53.251Z,25.40
2022-08-20T07:26:21.909Z,25.40
2022-08-20T07:28:51.573Z,25.40
2022-08-20T07:31:37.464Z,25.40
2022-08-20T07:34:06.127Z,25.40
2022-08-20T07:36:35.445Z,25.30
2022-08-20T07:39:05.821Z,25.30
2022-08-20T07:41:35.206Z,25.30
2022-08-20T07:44:05.797Z,25.20
2022-08-20T07:46:34.342Z,25.30
2022-08-20T07:49:09.820Z,25.30
2022-08-20T07:51:38.501Z,25.30
2022-08-20T07:54:07.061Z,25.30
2022-08-20T07:56:35.457Z,25.30
2022-08-20T07:59:06.268Z,25.30
2022-08-20T08:01:35.181Z,25.30
2022-08-20T08:04:04.509Z,25.40
2022-08-20T08:06:33.062Z,25.40
2022-08-20T08:09:06.043Z,25.40
2022-08-20T08:11:38.590Z,25.40
2022-08-20T08:14:09.792Z,25.30
2022-08-20T08:16:39.358Z,25.30
2022-08-20T08:19:11.921Z,25.30
2022-08-20T08:21:41.713Z,25.30
2022-08-20T08:24:12.734Z,25.30
2022-08-20T08:26:43.180Z,25.30
2022-08-20T08:29:13.565Z,25.30
2022-08-20T08:31:42.264Z,25.30
2022-08-20T08:34:10.673Z,25.20
2022-08-20T08:36:39.295Z,25.10
2022-08-20T08:39:07.856Z,25.30
2022-08-20T08:41:40.805Z,25.20
2022-08-20T08:44:13.151Z,25.20
2022-08-20T08:46:44.448Z,25.20
2022-08-20T08:49:15.877Z,25.20
2022-08-20T08:51:50.167Z,25.20
2022-08-20T08:54:22.904Z,25.20
2022-08-20T08:56:52.472Z,25.10
2022-08-20T08:59:23.771Z,25.20
2022-08-20T09:01:57.601Z,25.20
2022-08-20T09:04:32.195Z,25.20
2022-08-20T09:07:04.412Z,25.20
2022-08-20T09:09:36.896Z,25.10
2022-08-20T09:12:09.717Z,25.20
2022-08-20T09:14:39.904Z,25.20
2022-08-20T09:17:09.260Z,25.10
2022-08-20T09:19:37.569Z,25.10
2022-08-20T09:22:10.717Z,25.10
2022-08-20T09:24:39.467Z,25.20
2022-08-20T09:27:11.423Z,25.30
2022-08-20T09:29:41.679Z,25.30
2022-08-20T09:32:13.876Z,25.40
2022-08-20T09:34:51.808Z,25.50
2022-08-20T09:37:20.904Z,25.50
2022-08-20T09:39:49.671Z,25.50
2022-08-20T09:42:21.114Z,25.50
2022-08-20T09:44:51.043Z,25.50
2022-08-20T09:47:19.541Z,25.60
2022-08-20T09:49:48.405Z,25.60
2022-08-20T09:52:24.202Z,25.50
2022-08-20T09:54:54.855Z,25.50
2022-08-20T09:57:23.842Z,25.50
2022-08-20T09:59:57.961Z,25.50
2022-08-20T10:02:26.648Z,25.50
2022-08-20T10:04:55.423Z,25.50
2022-08-20T10:07:25.886Z,25.50
2022-08-20T10:09:54.407Z,25.50
2022-08-20T10:12:22.983Z,25.50
2022-08-20T10:14:51.294Z,25.50
2022-08-20T10:17:20.904Z,25.50
2022-08-20T10:19:49.769Z,25.50
2022-08-20T10:22:17.959Z,25.50
2022-08-20T10:24:46.214Z,25.50
2022-08-20T10:27:14.534Z,25.50
2022-08-20T10:29:46.697Z,25.40
2022-08-20T10:32:17.242Z,25.40
2022-08-20T10:34:47.772Z,25.30
2022-08-20T10:37:19.309Z,25.30
2022-08-20T10:39:49.250Z,25.30
2022-08-20T10:42:17.921Z,25.40
2022-08-20T10:44:47.066Z,25.40
2022-08-20T10:47:21.285Z,25.40
2022-08-20T10:49:53.848Z,25.40
2022-08-20T10:52:23.648Z,25.40
2022-08-20T10:54:53.276Z,25.40
2022-08-20T10:57:24.522Z,25.40
2022-08-20T10:59:55.777Z,25.50
2022-08-20T11:02:24.893Z,25.50
2022-08-20T11:04:55.176Z,25.50
2022-08-20T11:07:50.678Z,25.50
2022-08-20T11:10:20.063Z,25.50
2022-08-20T11:12:48.773Z,25.60
2022-08-20T11:15:17.258Z,25.50
2022-08-20T11:17:46.670Z,25.50
2022-08-20T11:20:19.719Z,25.40
2022-08-20T11:22:48.675Z,25.40
2022-08-20T11:25:17.171Z,25.40
2022-08-20T11:27:49.152Z,25.40
2022-08-20T11:30:22.357Z,25.30
2022-08-20T11:32:50.668Z,25.30
2022-08-20T11:38:10.138Z,25.30
2022-08-20T11:40:38.701Z,25.30
2022-08-20T11:43:15.997Z,25.30
2022-08-20T11:45:47.265Z,25.30
2022-08-20T11:48:15.601Z,25.30
2022-08-20T11:50:45.349Z,25.30
2022-08-20T11:53:14.857Z,25.30
2022-08-20T11:55:43.921Z,25.30
2022-08-20T11:58:12.406Z,25.30
2022-08-20T12:00:40.898Z,25.30
2022-08-20T12:03:11.813Z,25.30
2022-08-20T12:05:41.683Z,25.20
2022-08-20T12:08:27.704Z,25.20
2022-08-20T12:10:59.245Z,25.20
2022-08-20T12:13:30.564Z,25.30
2022-08-20T12:16:00.186Z,25.30
2022-08-20T12:18:29.011Z,25.30
2022-08-20T12:20:57.355Z,25.30
2022-08-20T12:23:27.158Z,25.30
2022-08-20T12:25:55.491Z,25.30
2022-08-20T12:28:27.524Z,25.30
2022-08-20T12:30:55.836Z,25.30
2022-08-20T12:33:24.176Z,25.40
2022-08-20T12:35:53.170Z,25.30
2022-08-20T12:38:21.606Z,25.40
2022-08-20T12:40:51.310Z,25.60
2022-08-20T12:43:24.646Z,25.60
2022-08-20T12:45:53.465Z,25.60
2022-08-20T12:48:21.889Z,25.60
2022-08-20T12:50:52.713Z,25.60
2022-08-20T12:53:21.242Z,25.60
2022-08-20T12:55:51.048Z,25.60
2022-08-20T12:58:19.665Z,25.60
2022-08-20T13:00:50.897Z,25.60
2022-08-20T13:03:22.077Z,25.70
2022-08-20T13:05:51.841Z,25.70
2022-08-20T13:08:23.511Z,25.70
2022-08-20T13:10:53.342Z,25.70
2022-08-20T13:13:21.606Z,25.70
2022-08-20T13:15:51.494Z,25.80
2022-08-20T13:18:20.192Z,25.80
2022-08-20T13:20:48.698Z,25.80
2022-08-20T13:23:17.533Z,25.80
2022-08-20T13:25:45.897Z,25.80
2022-08-20T13:28:15.639Z,25.90
2022-08-20T13:30:43.869Z,25.90
2022-08-20T13:33:12.209Z,25.90
2022-08-20T13:35:40.469Z,25.90
2022-08-20T13:38:08.828Z,25.90
2022-08-20T13:40:37.405Z,25.90
2022-08-20T13:43:07.335Z,25.90
2022-08-20T13:45:38.605Z,26.00
2022-08-20T13:48:14.706Z,26.00
2022-08-20T13:50:47.180Z,26.00
2022-08-20T13:53:17.206Z,26.00
2022-08-20T13:55:47.493Z,26.10
2022-08-20T13:58:17.363Z,26.10
2022-08-20T14:00:47.949Z,26.10
2022-08-20T14:03:19.791Z,26.10
2022-08-20T14:05:48.493Z,26.20
2022-08-20T14:08:19.543Z,26.20
2022-08-20T14:10:51.572Z,26.10
2022-08-20T14:13:23.394Z,26.10
2022-08-20T14:15:53.543Z,26.20
2022-08-20T14:18:22.195Z,26.10
2022-08-20T14:20:50.515Z,26.10
2022-08-20T14:23:18.951Z,26.10
2022-08-20T14:25:50.137Z,26.10
2022-08-20T14:28:21.288Z,26.10
2022-08-20T14:30:52.946Z,26.20
2022-08-20T14:33:24.933Z,26.10
2022-08-20T14:35:53.963Z,26.20
2022-08-20T14:38:22.922Z,26.20
2022-08-20T14:40:51.457Z,26.10
2022-08-20T14:43:20.169Z,26.10
2022-08-20T14:45:48.474Z,26.10
2022-08-20T14:48:16.756Z,26.10
2022-08-20T14:50:46.476Z,26.10
2022-08-20T14:53:14.692Z,26.10
2022-08-20T14:55:42.976Z,26.10
2022-08-20T14:58:13.611Z,26.10
2022-08-20T15:00:44.093Z,26.10
2022-08-20T15:03:13.370Z,26.10
2022-08-20T15:05:41.798Z,26.10
2022-08-20T15:08:11.418Z,26.10
2022-08-20T15:10:40.819Z,26.10
2022-08-20T15:13:09.511Z,26.10
2022-08-20T15:15:39.401Z,26.20
2022-08-20T15:18:08.674Z,26.40
2022-08-20T15:20:39.059Z,26.50
2022-08-20T15:23:08.089Z,26.60
2022-08-20T15:25:38.660Z,26.60
2022-08-20T15:28:09.544Z,26.50
2022-08-20T15:30:39.071Z,26.50
2022-08-20T15:33:08.265Z,26.60
2022-08-20T15:35:37.102Z,26.50
2022-08-20T15:38:07.863Z,26.50
2022-08-20T15:40:39.348Z,26.50
2022-08-20T15:43:08.718Z,26.50
2022-08-20T15:45:37.506Z,26.50
2022-08-20T15:48:15.042Z,26.50
2022-08-20T15:51:03.921Z,26.40
2022-08-20T15:53:38.640Z,26.50
2022-08-20T15:56:23.175Z,26.40
2022-08-20T15:59:06.801Z,26.40
2022-08-20T16:01:45.851Z,26.40
2022-08-20T16:04:57.890Z,26.40
2022-08-20T16:07:34.021Z,26.40
2022-08-20T16:10:15.136Z,26.40
2022-08-20T16:12:51.249Z,26.40
2022-08-20T16:15:24.292Z,26.40
2022-08-20T16:18:06.671Z,26.30
2022-08-20T16:20:41.597Z,26.30
2022-08-20T16:23:12.574Z,26.30
2022-08-20T16:25:59.208Z,26.30
2022-08-20T16:28:37.069Z,26.30
2022-08-20T16:31:11.987Z,26.30
2022-08-20T16:33:57.681Z,26.30
2022-08-20T16:36:38.138Z,26.30
2022-08-20T16:39:11.828Z,26.40
2022-08-20T16:41:42.965Z,26.40
2022-08-20T16:44:22.341Z,26.40
2022-08-20T16:46:55.879Z,26.40
2022-08-20T16:49:26.822Z,26.40
2022-08-20T16:51:55.662Z,26.30
2022-08-20T16:54:29.690Z,26.30
2022-08-20T16:57:04.365Z,26.30
2022-08-20T16:59:35.563Z,26.30
2022-08-20T17:02:10.414Z,26.30
2022-08-20T17:04:50.525Z,26.30
2022-08-20T17:07:33.379Z,26.30
2022-08-20T17:10:15.529Z,26.40
2022-08-20T17:12:43.884Z,26.40
2022-08-20T17:15:25.592Z,26.40
2022-08-20T17:17:56.014Z,26.40
2022-08-20T17:20:29.044Z,26.40
2022-08-20T17:23:14.742Z,26.40
2022-08-20T17:25:43.108Z,26.40
2022-08-20T17:28:16.856Z,26.40
2022-08-20T17:30:48.389Z,26.40
2022-08-20T17:33:30.458Z,26.20
2022-08-20T17:36:02.618Z,26.20
2022-08-20T17:38:41.652Z,26.00
2022-08-20T17:41:17.381Z,26.00
2022-08-20T17:43:47.140Z,26.00
2022-08-20T17:46:18.763Z,25.90
2022-08-20T17:48:49.579Z,25.90
2022-08-20T17:51:21.762Z,25.90
2022-08-20T17:53:54.353Z,25.90
2022-08-20T17:56:27.173Z,25.90
2022-08-20T17:59:03.487Z,25.90
2022-08-20T18:01:36.204Z,25.90
2022-08-20T18:04:05.122Z,25.90
2022-08-20T18:06:44.567Z,25.70
2022-08-20T18:09:20.469Z,25.70
2022-08-20T18:11:55.537Z,25.70
2022-08-20T18:14:40.510Z,25.70
2022-08-20T18:17:50.330Z,25.70
2022-08-20T18:20:49.672Z,25.70
2022-08-20T18:23:22.614Z,25.70
2022-08-20T18:25:55.779Z,25.70
2022-08-20T18:28:36.391Z,25.70
2022-08-20T18:31:10.307Z,25.60
2022-08-20T18:33:43.505Z,25.60
2022-08-20T18:36:24.893Z,25.60
2022-08-20T18:39:03.445Z,25.60
2022-08-20T18:41:35.507Z,25.60
2022-08-20T18:44:08.981Z,25.60
2022-08-20T18:46:38.674Z,25.60
2022-08-20T18:49:09.936Z,25.60
2022-08-20T18:51:43.569Z,25.60
2022-08-20T18:54:25.024Z,25.70
2022-08-20T18:57:05.875Z,25.70
2022-08-20T18:59:41.657Z,25.80
2022-08-20T19:02:23.741Z,25.70
2022-08-20T19:04:59.812Z,25.80
2022-08-20T19:07:43.155Z,25.80
2022-08-20T19:10:43.743Z,25.80
2022-08-20T19:16:02.201Z,25.90
2022-08-20T19:18:38.739Z,25.90
2022-08-20T19:21:15.642Z,26.00
2022-08-20T19:23:54.368Z,26.00
2022-08-20T19:26:26.187Z,26.00
2022-08-20T19:28:59.020Z,26.10
2022-08-20T19:31:30.534Z,26.20
2022-08-20T19:34:19.900Z,26.20
2022-08-20T19:36:58.971Z,26.30
2022-08-20T19:39:32.437Z,26.20
2022-08-20T19:42:15.062Z,26.30
2022-08-20T19:44:51.469Z,26.30
2022-08-20T19:47:35.057Z,26.40
2022-08-20T19:50:20.752Z,26.40
2022-08-20T19:52:58.803Z,26.40
2022-08-20T19:55:32.969Z,26.40
2022-08-20T19:58:06.737Z,26.40
2022-08-20T20:00:41.963Z,26.40
2022-08-20T20:03:11.572Z,26.40
2022-08-20T20:05:51.262Z,26.30
2022-08-20T20:08:22.534Z,26.30
2022-08-20T20:10:57.942Z,26.20
2022-08-20T20:13:36.012Z,26.30
2022-08-20T20:16:08.679Z,26.20
2022-08-20T20:18:41.460Z,26.20
2022-08-20T20:21:15.560Z,26.10
2022-08-20T20:23:55.659Z,26.10
2022-08-20T20:26:25.143Z,26.20
2022-08-20T20:29:02.221Z,26.10
2022-08-20T20:31:34.464Z,26.10
2022-08-20T20:34:13.220Z,26.10
2022-08-20T20:36:43.895Z,26.00
2022-08-20T20:39:29.932Z,26.00
2022-08-20T20:42:09.256Z,26.00
2022-08-20T20:44:40.405Z,26.00
2022-08-20T20:47:20.207Z,26.00
2022-08-20T20:49:53.356Z,26.10
2022-08-20T20:52:25.458Z,26.10
2022-08-20T20:55:10.164Z,26.10
2022-08-20T20:57:39.553Z,26.00
2022-08-20T21:00:13.272Z,26.10
2022-08-20T21:02:43.434Z,26.10
2022-08-20T21:05:14.573Z,26.10
2022-08-20T21:07:50.599Z,26.10
2022-08-20T21:10:24.245Z,26.00
2022-08-20T21:12:53.516Z,26.00
2022-08-20T21:15:24.349Z,26.10
2022-08-20T21:17:53.781Z,26.00
2022-08-20T21:20:23.200Z,26.00
2022-08-20T21:22:51.684Z,26.00
2022-08-20T21:25:21.757Z,26.00
2022-08-20T21:27:52.260Z,26.00
2022-08-20T21:30:22.753Z,26.00
2022-08-20T21:32:51.615Z,26.00
2022-08-20T21:35:20.486Z,25.90
2022-08-20T21:37:49.073Z,25.90
2022-08-20T21:40:21.439Z,25.90
2022-08-20T21:42:52.274Z,25.90
2022-08-20T21:45:22.458Z,25.90
2022-08-20T21:47:50.908Z,25.90
2022-08-20T21:50:21.391Z,25.90
2022-08-20T21:53:11.299Z,25.90
2022-08-20T21:55:40.396Z,26.00
2022-08-20T21:58:10.531Z,26.00
2022-08-20T22:00:55.005Z,26.00
2022-08-20T22:03:26.605Z,26.00
2022-08-20T22:05:55.978Z,26.00
2022-08-20T22:08:28.126Z,26.00
2022-08-20T22:10:58.732Z,26.00
2022-08-20T22:13:32.827Z,26.00
2022-08-20T22:16:02.730Z,26.00
2022-08-20T22:18:31.284Z,26.00
2022-08-20T22:21:00.320Z,25.90
2022-08-20T22:23:29.879Z,26.00
2022-08-20T22:25:58.264Z,25.90
2022-08-20T22:28:27.971Z,25.90
2022-08-20T22:30:56.264Z,25.90
2022-08-20T22:33:26.024Z,25.90
2022-08-20T22:35:59.498Z,25.90
2022-08-20T22:38:29.409Z,25.90
2022-08-20T22:40:58.296Z,25.80
2022-08-20T22:43:29.908Z,25.80
2022-08-20T22:46:02.147Z,25.80
2022-08-20T22:48:31.207Z,25.70
2022-08-20T22:51:00.255Z,25.70
2022-08-20T22:53:29.589Z,25.70
2022-08-20T22:55:58.961Z,25.70
2022-08-20T22:58:30.457Z,25.70
2022-08-20T23:01:02.279Z,25.70
2022-08-20T23:03:40.049Z,25.70
2022-08-20T23:06:10.919Z,25.70
2022-08-20T23:08:40.457Z,25.70
2022-08-20T23:11:09.359Z,25.70
2022-08-20T23:13:39.632Z,25.70
2022-08-20T23:16:09.104Z,25.70
2022-08-20T23:18:38.082Z,25.70
2022-08-20T23:21:07.047Z,25.70
2022-08-20T23:23:35.448Z,25.70
2022-08-20T23:26:04.185Z,25.60
2022-08-20T23:28:32.535Z,25.60
2022-08-20T23:31:02.200Z,25.60
2022-08-20T23:33:31.539Z,25.60
2022-08-20T23:36:03.905Z,25.60
2022-08-20T23:38:32.243Z,25.60
2022-08-20T23:41:00.529Z,25.60
2022-08-20T23:43:29.056Z,25.60
2022-08-20T23:46:03.502Z,25.60
2022-08-20T23:48:31.933Z,25.60
2022-08-20T23:51:00.228Z,25.60
2022-08-20T23:53:28.674Z,25.60
2022-08-20T23:55:57.276Z,25.60
2022-08-20T23:58:25.605Z,25.60
